SWR891 EVRA-LSZH
Flight info
| Callsign | SWR891 |
|---|---|
| Flight time | 2h 15m |
| Altitude | 34000 |
| Route | VALED DCT ADAXA DCT NINTA DCT DIPEB DCT ANFEV DCT PENOR DCT BODLA DCT VEVAS DCT AMOSA/N0446F300 N869 TEDGO/N0446F310 T724 RILAX |
| Aircraft | A321/M-SDE3FGHIRWY/LB1 |
Departure
| Time | 2026-05-04 22:57 |
|---|---|
| Airport | Riga International Airport (EVRA) |
Arrival
| Time | 2026-05-05 01:12 |
|---|---|
| Airport | Zürich Airport (LSZH) |
| Time | Latitude | Longitude | Altitude | Speed | Heading |
|---|---|---|---|---|---|
| 2026-05-04 22:16 | 56.92436 | 23.97789 | 46 ft | 0 kts | 5° |
| 2026-05-04 22:48 | 56.92423 | 23.97787 | 46 ft | 2 kts | 5° |
| 2026-05-04 22:48 | 56.92412 | 23.97785 | 46 ft | 2 kts | 6° |
| 2026-05-04 22:49 | 56.92394 | 23.97790 | 46 ft | 2 kts | 326° |
| 2026-05-04 22:49 | 56.92382 | 23.97814 | 46 ft | 2 kts | 292° |
| 2026-05-04 22:49 | 56.92380 | 23.97832 | 46 ft | 1 kts | 271° |
| 2026-05-04 22:49 | 56.92380 | 23.97841 | 46 ft | 0 kts | 274° |
| 2026-05-04 22:52 | 56.92380 | 23.97840 | 46 ft | 0 kts | 274° |
| 2026-05-04 22:52 | 56.92380 | 23.97825 | 46 ft | 2 kts | 274° |
| 2026-05-04 22:52 | 56.92382 | 23.97784 | 46 ft | 4 kts | 274° |
| 2026-05-04 22:52 | 56.92385 | 23.97714 | 46 ft | 6 kts | 275° |
| 2026-05-04 22:53 | 56.92389 | 23.97609 | 46 ft | 8 kts | 275° |
| 2026-05-04 22:53 | 56.92425 | 23.97528 | 46 ft | 8 kts | 353° |
| 2026-05-04 22:53 | 56.92489 | 23.97533 | 46 ft | 9 kts | 4° |
| 2026-05-04 22:53 | 56.92561 | 23.97543 | 46 ft | 10 kts | 6° |
| 2026-05-04 22:54 | 56.92650 | 23.97560 | 46 ft | 12 kts | 6° |
| 2026-05-04 22:54 | 56.92747 | 23.97576 | 46 ft | 13 kts | 4° |
| 2026-05-04 22:54 | 56.92845 | 23.97594 | 46 ft | 14 kts | 4° |
| 2026-05-04 22:54 | 56.92957 | 23.97608 | 46 ft | 15 kts | 4° |
| 2026-05-04 22:55 | 56.93078 | 23.97628 | 46 ft | 16 kts | 6° |
| 2026-05-04 22:55 | 56.93190 | 23.97608 | 46 ft | 15 kts | 339° |
| 2026-05-04 22:55 | 56.93302 | 23.97575 | 46 ft | 15 kts | 4° |
| 2026-05-04 22:55 | 56.93412 | 23.97592 | 46 ft | 12 kts | 357° |
| 2026-05-04 22:56 | 56.93476 | 23.97517 | 46 ft | 10 kts | 300° |
| 2026-05-04 22:56 | 56.93487 | 23.97373 | 46 ft | 10 kts | 255° |
| 2026-05-04 22:56 | 56.93438 | 23.97302 | 46 ft | 3 kts | 186° |
| 2026-05-04 22:56 | 56.93420 | 23.97298 | 46 ft | 18 kts | 186° |
| 2026-05-04 22:57 | 56.93032 | 23.97233 | 46 ft | 91 kts | 185° |
| 2026-05-04 22:57 | 56.92186 | 23.97095 | 46 ft | 151 kts | 186° |
| 2026-05-04 22:57 | 56.90964 | 23.96892 | 319 ft | 180 kts | 188° |
| 2026-05-04 22:57 | 56.89594 | 23.96616 | 866 ft | 190 kts | 190° |
| 2026-05-04 22:58 | 56.88160 | 23.96261 | 1547 ft | 200 kts | 192° |
| 2026-05-04 22:58 | 56.86696 | 23.95853 | 2356 ft | 193 kts | 194° |
| 2026-05-04 22:58 | 56.85278 | 23.95305 | 2776 ft | 198 kts | 204° |
| 2026-05-04 22:58 | 56.84162 | 23.93707 | 3024 ft | 203 kts | 237° |
| 2026-05-04 22:59 | 56.83471 | 23.91343 | 3257 ft | 219 kts | 244° |
| 2026-05-04 22:59 | 56.82576 | 23.88971 | 3580 ft | 235 kts | 233° |
| 2026-05-04 22:59 | 56.81426 | 23.86673 | 4012 ft | 247 kts | 229° |
| 2026-05-04 22:59 | 56.80159 | 23.84351 | 4504 ft | 257 kts | 229° |
| 2026-05-04 23:00 | 56.78947 | 23.81986 | 5259 ft | 255 kts | 232° |
| 2026-05-04 23:00 | 56.77818 | 23.79424 | 5957 ft | 255 kts | 236° |
| 2026-05-04 23:00 | 56.76678 | 23.76896 | 6658 ft | 257 kts | 231° |
| 2026-05-04 23:00 | 56.75456 | 23.74511 | 7329 ft | 259 kts | 231° |
| 2026-05-04 23:01 | 56.74220 | 23.72132 | 8009 ft | 260 kts | 231° |
| 2026-05-04 23:01 | 56.72965 | 23.69736 | 8690 ft | 261 kts | 231° |
| 2026-05-04 23:01 | 56.71701 | 23.67335 | 9354 ft | 263 kts | 230° |
| 2026-05-04 23:01 | 56.70449 | 23.64963 | 9988 ft | 264 kts | 231° |
| 2026-05-04 23:02 | 56.69162 | 23.62528 | 10430 ft | 273 kts | 231° |
| 2026-05-04 23:02 | 56.67811 | 23.59974 | 10703 ft | 288 kts | 230° |
| 2026-05-04 23:02 | 56.66394 | 23.57302 | 10961 ft | 302 kts | 230° |
| 2026-05-04 23:02 | 56.64899 | 23.54492 | 11214 ft | 315 kts | 230° |
| 2026-05-04 23:03 | 56.63368 | 23.51622 | 11482 ft | 327 kts | 230° |
| 2026-05-04 23:03 | 56.61779 | 23.48624 | 11946 ft | 332 kts | 231° |
| 2026-05-04 23:03 | 56.60258 | 23.45459 | 12503 ft | 333 kts | 234° |
| 2026-05-04 23:03 | 56.58798 | 23.42263 | 12797 ft | 333 kts | 235° |
| 2026-05-04 23:04 | 56.57653 | 23.38609 | 12818 ft | 340 kts | 253° |
| 2026-05-04 23:04 | 56.57284 | 23.34283 | 12841 ft | 355 kts | 270° |
| 2026-05-04 23:04 | 56.57772 | 23.29861 | 13038 ft | 368 kts | 287° |
| 2026-05-04 23:04 | 56.58712 | 23.25494 | 13320 ft | 376 kts | 288° |
| 2026-05-04 23:05 | 56.59647 | 23.21100 | 13691 ft | 379 kts | 288° |
| 2026-05-04 23:05 | 56.60547 | 23.16593 | 13820 ft | 380 kts | 286° |
| 2026-05-04 23:05 | 56.61322 | 23.12042 | 14041 ft | 384 kts | 284° |
| 2026-05-04 23:05 | 56.62083 | 23.07434 | 14623 ft | 382 kts | 284° |
| 2026-05-04 23:06 | 56.62844 | 23.02784 | 15089 ft | 384 kts | 284° |
| 2026-05-04 23:06 | 56.63596 | 22.98178 | 15516 ft | 385 kts | 284° |
| 2026-05-04 23:06 | 56.64354 | 22.93527 | 15932 ft | 387 kts | 284° |
| 2026-05-04 23:06 | 56.65125 | 22.88793 | 16279 ft | 391 kts | 284° |
| 2026-05-04 23:07 | 56.65892 | 22.84065 | 16653 ft | 393 kts | 284° |
| 2026-05-04 23:07 | 56.66658 | 22.79335 | 17030 ft | 395 kts | 284° |
| 2026-05-04 23:07 | 56.67425 | 22.74590 | 17388 ft | 397 kts | 284° |
| 2026-05-04 23:07 | 56.68209 | 22.69728 | 17742 ft | 399 kts | 284° |
| 2026-05-04 23:08 | 56.68985 | 22.64897 | 18061 ft | 401 kts | 284° |
| 2026-05-04 23:08 | 56.69754 | 22.60087 | 18387 ft | 403 kts | 284° |
| 2026-05-04 23:08 | 56.70542 | 22.55152 | 18729 ft | 405 kts | 284° |
| 2026-05-04 23:08 | 56.71185 | 22.50194 | 19014 ft | 405 kts | 278° |
| 2026-05-04 23:09 | 56.71423 | 22.45105 | 19331 ft | 405 kts | 270° |
| 2026-05-04 23:09 | 56.71261 | 22.40006 | 19721 ft | 404 kts | 263° |
| 2026-05-04 23:09 | 56.70801 | 22.35090 | 20492 ft | 394 kts | 260° |
| 2026-05-04 23:09 | 56.70306 | 22.30270 | 21328 ft | 384 kts | 259° |
| 2026-05-04 23:10 | 56.69817 | 22.25589 | 21902 ft | 380 kts | 259° |
| 2026-05-04 23:10 | 56.69317 | 22.20836 | 22210 ft | 383 kts | 259° |
| 2026-05-04 23:10 | 56.68815 | 22.16075 | 22512 ft | 386 kts | 259° |
| 2026-05-04 23:10 | 56.68312 | 22.11313 | 22844 ft | 388 kts | 259° |
| 2026-05-04 23:11 | 56.67804 | 22.06531 | 23160 ft | 390 kts | 259° |
| 2026-05-04 23:11 | 56.67287 | 22.01680 | 23453 ft | 392 kts | 259° |
| 2026-05-04 23:11 | 56.66768 | 21.96821 | 23768 ft | 394 kts | 259° |
| 2026-05-04 23:11 | 56.66243 | 21.91933 | 24087 ft | 395 kts | 259° |
| 2026-05-04 23:12 | 56.65719 | 21.87084 | 24371 ft | 397 kts | 259° |
| 2026-05-04 23:12 | 56.65184 | 21.82137 | 24663 ft | 399 kts | 259° |
| 2026-05-04 23:12 | 56.64652 | 21.77230 | 24945 ft | 400 kts | 259° |
| 2026-05-04 23:12 | 56.64115 | 21.72296 | 25235 ft | 402 kts | 259° |
| 2026-05-04 23:13 | 56.63568 | 21.67300 | 25514 ft | 403 kts | 259° |
| 2026-05-04 23:13 | 56.63024 | 21.62352 | 25750 ft | 406 kts | 259° |
| 2026-05-04 23:13 | 56.62473 | 21.57358 | 25981 ft | 408 kts | 259° |
| 2026-05-04 23:13 | 56.61910 | 21.52271 | 26255 ft | 409 kts | 259° |
| 2026-05-04 23:14 | 56.61350 | 21.47239 | 26485 ft | 412 kts | 259° |
| 2026-05-04 23:14 | 56.60784 | 21.42170 | 26765 ft | 412 kts | 259° |
| 2026-05-04 23:14 | 56.60212 | 21.37057 | 27117 ft | 411 kts | 259° |
| 2026-05-04 23:14 | 56.59645 | 21.32033 | 27502 ft | 409 kts | 258° |
| 2026-05-04 23:15 | 56.59074 | 21.26980 | 27850 ft | 409 kts | 258° |
| 2026-05-04 23:15 | 56.58509 | 21.21994 | 28198 ft | 408 kts | 258° |
| 2026-05-04 23:15 | 56.57943 | 21.17017 | 28547 ft | 407 kts | 259° |
| 2026-05-04 23:15 | 56.57370 | 21.12003 | 28892 ft | 406 kts | 259° |
| 2026-05-04 23:16 | 56.56799 | 21.07024 | 29241 ft | 404 kts | 259° |
| 2026-05-04 23:16 | 56.56227 | 21.02053 | 29537 ft | 404 kts | 258° |
| 2026-05-04 23:16 | 56.55653 | 20.97085 | 29826 ft | 404 kts | 259° |
| 2026-05-04 23:16 | 56.55076 | 20.92103 | 30118 ft | 404 kts | 259° |
| 2026-05-04 23:17 | 56.54503 | 20.87179 | 30434 ft | 403 kts | 259° |
| 2026-05-04 23:17 | 56.53930 | 20.82286 | 30761 ft | 401 kts | 259° |
| 2026-05-04 23:17 | 56.53353 | 20.77360 | 31043 ft | 400 kts | 259° |
| 2026-05-04 23:17 | 56.52775 | 20.72445 | 31286 ft | 400 kts | 259° |
| 2026-05-04 23:18 | 56.52195 | 20.67537 | 31519 ft | 401 kts | 259° |
| 2026-05-04 23:18 | 56.51613 | 20.62634 | 31743 ft | 401 kts | 259° |
| 2026-05-04 23:18 | 56.51026 | 20.57687 | 31965 ft | 401 kts | 259° |
| 2026-05-04 23:18 | 56.50438 | 20.52767 | 32171 ft | 401 kts | 258° |
| 2026-05-04 23:19 | 56.49853 | 20.47880 | 32362 ft | 402 kts | 259° |
| 2026-05-04 23:19 | 56.49261 | 20.42962 | 32525 ft | 403 kts | 258° |
| 2026-05-04 23:19 | 56.48664 | 20.38016 | 32667 ft | 405 kts | 258° |
| 2026-05-04 23:19 | 56.48060 | 20.33031 | 32833 ft | 405 kts | 258° |
| 2026-05-04 23:20 | 56.47461 | 20.28101 | 33001 ft | 406 kts | 258° |
| 2026-05-04 23:20 | 56.46854 | 20.23127 | 33178 ft | 407 kts | 258° |
| 2026-05-04 23:20 | 56.46241 | 20.18135 | 33360 ft | 407 kts | 258° |
| 2026-05-04 23:20 | 56.45631 | 20.13171 | 33493 ft | 408 kts | 258° |
| 2026-05-04 23:21 | 56.45015 | 20.08174 | 33618 ft | 410 kts | 257° |
| 2026-05-04 23:21 | 56.44398 | 20.03187 | 33757 ft | 411 kts | 258° |
| 2026-05-04 23:21 | 56.43145 | 19.93127 | 33830 ft | 411 kts | 258° |
| 2026-05-04 23:22 | 56.41884 | 19.83075 | 33825 ft | 411 kts | 258° |
| 2026-05-04 23:22 | 56.40619 | 19.73047 | 33838 ft | 411 kts | 258° |
| 2026-05-04 23:23 | 56.39348 | 19.63041 | 33841 ft | 411 kts | 258° |
| 2026-05-04 23:23 | 56.38068 | 19.53038 | 33846 ft | 411 kts | 258° |
| 2026-05-04 23:24 | 56.36784 | 19.43078 | 33844 ft | 411 kts | 258° |
| 2026-05-04 23:24 | 56.35486 | 19.33074 | 33850 ft | 411 kts | 257° |
| 2026-05-04 23:25 | 56.34181 | 19.23094 | 33844 ft | 412 kts | 257° |
| 2026-05-04 23:25 | 56.32865 | 19.13086 | 33848 ft | 412 kts | 257° |
| 2026-05-04 23:26 | 56.31546 | 19.03136 | 33848 ft | 411 kts | 257° |
| 2026-05-04 23:26 | 56.30214 | 18.93157 | 33846 ft | 411 kts | 257° |
| 2026-05-04 23:27 | 56.29030 | 18.83100 | 33848 ft | 412 kts | 259° |
| 2026-05-04 23:27 | 56.27918 | 18.73068 | 33847 ft | 412 kts | 259° |
| 2026-05-04 23:28 | 56.26790 | 18.62964 | 33843 ft | 413 kts | 259° |
| 2026-05-04 23:28 | 56.25660 | 18.52913 | 33845 ft | 413 kts | 259° |
| 2026-05-04 23:29 | 56.24515 | 18.42826 | 33848 ft | 413 kts | 259° |
| 2026-05-04 23:29 | 56.23364 | 18.32771 | 33856 ft | 414 kts | 258° |
| 2026-05-04 23:30 | 56.22008 | 18.22741 | 33856 ft | 414 kts | 255° |
| 2026-05-04 23:30 | 56.20505 | 18.12824 | 33854 ft | 414 kts | 253° |
| 2026-05-04 23:31 | 56.18407 | 18.03211 | 33862 ft | 415 kts | 245° |
| 2026-05-04 23:31 | 56.15557 | 17.94292 | 33870 ft | 418 kts | 238° |
| 2026-05-04 23:32 | 56.11962 | 17.86125 | 33871 ft | 421 kts | 230° |
| 2026-05-04 23:32 | 56.07915 | 17.78553 | 33872 ft | 421 kts | 229° |
| 2026-05-04 23:33 | 56.03876 | 17.71062 | 33872 ft | 422 kts | 229° |
| 2026-05-04 23:33 | 55.99808 | 17.63542 | 33874 ft | 422 kts | 229° |
| 2026-05-04 23:34 | 55.95747 | 17.56061 | 33877 ft | 422 kts | 229° |
| 2026-05-04 23:34 | 55.91684 | 17.48594 | 33880 ft | 421 kts | 229° |
| 2026-05-04 23:35 | 55.87620 | 17.41156 | 33882 ft | 420 kts | 229° |
| 2026-05-04 23:35 | 55.83472 | 17.33805 | 33888 ft | 421 kts | 224° |
| 2026-05-04 23:36 | 55.78852 | 17.27468 | 33886 ft | 423 kts | 216° |
| 2026-05-04 23:36 | 55.73732 | 17.22375 | 33894 ft | 426 kts | 208° |
| 2026-05-04 23:37 | 55.68295 | 17.18277 | 33891 ft | 427 kts | 207° |
| 2026-05-04 23:37 | 55.63004 | 17.13791 | 33895 ft | 422 kts | 212° |
| 2026-05-04 23:38 | 55.58022 | 17.08393 | 33904 ft | 419 kts | 218° |
| 2026-05-04 23:38 | 55.53294 | 17.02510 | 33894 ft | 418 kts | 219° |
| 2026-05-04 23:39 | 55.48562 | 16.96664 | 33897 ft | 416 kts | 219° |
| 2026-05-04 23:39 | 55.43831 | 16.90831 | 33899 ft | 416 kts | 219° |
| 2026-05-04 23:40 | 55.39130 | 16.85049 | 33907 ft | 414 kts | 219° |
| 2026-05-04 23:40 | 55.34416 | 16.79262 | 33904 ft | 414 kts | 219° |
| 2026-05-04 23:41 | 55.29722 | 16.73514 | 33905 ft | 413 kts | 219° |
| 2026-05-04 23:41 | 55.25040 | 16.67803 | 33910 ft | 412 kts | 219° |
| 2026-05-04 23:42 | 55.20341 | 16.62086 | 33911 ft | 411 kts | 219° |
| 2026-05-04 23:42 | 55.15678 | 16.56432 | 33912 ft | 411 kts | 219° |
| 2026-05-04 23:43 | 55.10981 | 16.50752 | 33915 ft | 409 kts | 219° |
| 2026-05-04 23:43 | 55.06350 | 16.45165 | 33918 ft | 409 kts | 219° |
| 2026-05-04 23:44 | 55.01675 | 16.39541 | 33922 ft | 408 kts | 219° |
| 2026-05-04 23:44 | 54.97031 | 16.33976 | 33923 ft | 408 kts | 219° |
| 2026-05-04 23:45 | 54.92361 | 16.28387 | 33919 ft | 408 kts | 218° |
| 2026-05-04 23:45 | 54.87714 | 16.22846 | 33918 ft | 408 kts | 219° |
| 2026-05-04 23:46 | 54.83031 | 16.17279 | 33919 ft | 408 kts | 218° |
| 2026-05-04 23:46 | 54.78344 | 16.11723 | 33918 ft | 409 kts | 219° |
| 2026-05-04 23:47 | 54.73656 | 16.06182 | 33923 ft | 410 kts | 218° |
| 2026-05-04 23:47 | 54.68984 | 16.00673 | 33922 ft | 410 kts | 218° |
| 2026-05-04 23:48 | 54.64256 | 15.95113 | 33925 ft | 411 kts | 218° |
| 2026-05-04 23:48 | 54.59545 | 15.89595 | 33925 ft | 411 kts | 218° |
| 2026-05-04 23:49 | 54.54831 | 15.84084 | 33928 ft | 412 kts | 218° |
| 2026-05-04 23:49 | 54.50112 | 15.78587 | 33928 ft | 412 kts | 218° |
| 2026-05-04 23:50 | 54.45374 | 15.73083 | 33929 ft | 412 kts | 218° |
| 2026-05-04 23:50 | 54.40651 | 15.67610 | 33931 ft | 412 kts | 219° |
| 2026-05-04 23:51 | 54.35904 | 15.62124 | 33931 ft | 413 kts | 219° |
| 2026-05-04 23:51 | 54.31177 | 15.56678 | 33930 ft | 412 kts | 219° |
| 2026-05-04 23:52 | 54.26415 | 15.51206 | 33933 ft | 413 kts | 218° |
| 2026-05-04 23:52 | 54.21653 | 15.45746 | 33934 ft | 413 kts | 218° |
| 2026-05-04 23:53 | 54.16862 | 15.40275 | 33935 ft | 413 kts | 218° |
| 2026-05-04 23:53 | 54.12106 | 15.34854 | 33935 ft | 414 kts | 218° |
| 2026-05-04 23:54 | 54.07308 | 15.29406 | 33937 ft | 415 kts | 218° |
| 2026-05-04 23:54 | 54.02534 | 15.23997 | 33936 ft | 416 kts | 218° |
| 2026-05-04 23:55 | 53.97700 | 15.18537 | 33936 ft | 416 kts | 218° |
| 2026-05-04 23:56 | 53.90466 | 15.10391 | 33936 ft | 416 kts | 218° |
| 2026-05-04 23:56 | 53.85617 | 15.04953 | 33937 ft | 416 kts | 218° |
| 2026-05-04 23:57 | 53.80762 | 14.99522 | 33939 ft | 416 kts | 218° |
| 2026-05-04 23:57 | 53.75902 | 14.94103 | 33934 ft | 415 kts | 218° |
| 2026-05-04 23:58 | 53.71059 | 14.88714 | 33940 ft | 415 kts | 218° |
| 2026-05-04 23:58 | 53.66275 | 14.83409 | 33939 ft | 415 kts | 218° |
| 2026-05-04 23:59 | 53.61470 | 14.78089 | 33939 ft | 414 kts | 217° |
| 2026-05-04 23:59 | 53.56647 | 14.72769 | 33941 ft | 414 kts | 217° |
| 2026-05-05 00:00 | 53.51816 | 14.67453 | 33942 ft | 413 kts | 217° |
| 2026-05-05 00:00 | 53.46953 | 14.62119 | 33938 ft | 413 kts | 217° |
| 2026-05-05 00:01 | 53.42037 | 14.56738 | 33935 ft | 413 kts | 217° |
| 2026-05-05 00:01 | 53.37202 | 14.51463 | 33934 ft | 413 kts | 217° |
| 2026-05-05 00:02 | 53.32357 | 14.46190 | 33930 ft | 413 kts | 217° |
| 2026-05-05 00:02 | 53.27560 | 14.40988 | 33930 ft | 412 kts | 217° |
| 2026-05-05 00:03 | 53.22747 | 14.35719 | 33935 ft | 411 kts | 217° |
| 2026-05-05 00:03 | 53.17923 | 14.30432 | 33936 ft | 410 kts | 217° |
| 2026-05-05 00:04 | 53.13158 | 14.25224 | 33937 ft | 409 kts | 216° |
| 2026-05-05 00:04 | 53.08342 | 14.19977 | 33937 ft | 409 kts | 216° |
| 2026-05-05 00:05 | 53.03493 | 14.14707 | 33937 ft | 408 kts | 216° |
| 2026-05-05 00:05 | 52.98667 | 14.09478 | 33935 ft | 408 kts | 216° |
| 2026-05-05 00:06 | 52.93921 | 14.04348 | 33935 ft | 408 kts | 216° |
| 2026-05-05 00:06 | 52.89130 | 13.99185 | 33934 ft | 408 kts | 216° |
| 2026-05-05 00:07 | 52.84153 | 13.93835 | 33931 ft | 408 kts | 216° |
| 2026-05-05 00:07 | 52.79161 | 13.88487 | 33927 ft | 408 kts | 216° |
| 2026-05-05 00:08 | 52.74359 | 13.83352 | 33928 ft | 409 kts | 216° |
| 2026-05-05 00:08 | 52.69397 | 13.78061 | 33922 ft | 409 kts | 216° |
| 2026-05-05 00:09 | 52.64380 | 13.72727 | 33921 ft | 410 kts | 216° |
| 2026-05-05 00:09 | 52.59552 | 13.67608 | 33923 ft | 410 kts | 215° |
| 2026-05-05 00:10 | 52.54759 | 13.62541 | 33922 ft | 410 kts | 216° |
| 2026-05-05 00:10 | 52.49976 | 13.57499 | 33923 ft | 410 kts | 215° |
| 2026-05-05 00:11 | 52.45185 | 13.52462 | 33922 ft | 409 kts | 215° |
| 2026-05-05 00:11 | 52.40380 | 13.47418 | 33922 ft | 409 kts | 215° |
| 2026-05-05 00:12 | 52.35535 | 13.42348 | 33923 ft | 408 kts | 215° |
| 2026-05-05 00:12 | 52.30749 | 13.37352 | 33922 ft | 409 kts | 215° |
| 2026-05-05 00:13 | 52.25983 | 13.32391 | 33922 ft | 411 kts | 214° |
| 2026-05-05 00:13 | 52.21166 | 13.27392 | 33922 ft | 411 kts | 214° |
| 2026-05-05 00:14 | 52.16339 | 13.22392 | 33920 ft | 411 kts | 214° |
| 2026-05-05 00:14 | 52.11541 | 13.17436 | 33918 ft | 411 kts | 214° |
| 2026-05-05 00:15 | 52.06751 | 13.12503 | 33915 ft | 410 kts | 213° |
| 2026-05-05 00:15 | 52.01940 | 13.07558 | 33919 ft | 410 kts | 214° |
| 2026-05-05 00:16 | 51.97103 | 13.02601 | 33915 ft | 409 kts | 213° |
| 2026-05-05 00:16 | 51.92285 | 12.97675 | 33917 ft | 410 kts | 213° |
| 2026-05-05 00:17 | 51.87472 | 12.92768 | 33920 ft | 410 kts | 213° |
| 2026-05-05 00:17 | 51.82658 | 12.87869 | 33920 ft | 410 kts | 213° |
| 2026-05-05 00:18 | 51.77821 | 12.82962 | 33920 ft | 411 kts | 213° |
| 2026-05-05 00:18 | 51.72974 | 12.78056 | 33919 ft | 411 kts | 213° |
| 2026-05-05 00:19 | 51.67958 | 12.72997 | 33918 ft | 411 kts | 213° |
| 2026-05-05 00:19 | 51.63032 | 12.68263 | 33909 ft | 410 kts | 211° |
| 2026-05-05 00:20 | 51.58116 | 12.63730 | 33902 ft | 410 kts | 211° |
| 2026-05-05 00:20 | 51.53172 | 12.59173 | 33900 ft | 410 kts | 211° |
| 2026-05-05 00:21 | 51.48223 | 12.54608 | 33904 ft | 410 kts | 211° |
| 2026-05-05 00:21 | 51.43295 | 12.50069 | 33907 ft | 410 kts | 211° |
| 2026-05-05 00:22 | 51.38333 | 12.45507 | 33909 ft | 410 kts | 211° |
| 2026-05-05 00:22 | 51.33389 | 12.40971 | 33911 ft | 410 kts | 211° |
| 2026-05-05 00:23 | 51.28125 | 12.36156 | 33909 ft | 410 kts | 211° |
| 2026-05-05 00:23 | 51.22781 | 12.31283 | 33909 ft | 410 kts | 210° |
| 2026-05-05 00:24 | 51.17357 | 12.26347 | 33908 ft | 410 kts | 210° |
| 2026-05-05 00:24 | 51.12262 | 12.21722 | 33911 ft | 410 kts | 210° |
| 2026-05-05 00:25 | 51.07251 | 12.17186 | 33912 ft | 410 kts | 210° |
| 2026-05-05 00:25 | 51.02220 | 12.12643 | 33912 ft | 410 kts | 210° |
| 2026-05-05 00:26 | 50.96804 | 12.07766 | 33912 ft | 411 kts | 210° |
| 2026-05-05 00:26 | 50.91734 | 12.03213 | 33913 ft | 410 kts | 210° |
| 2026-05-05 00:27 | 50.86472 | 11.98500 | 33916 ft | 410 kts | 210° |
| 2026-05-05 00:27 | 50.81119 | 11.93716 | 33917 ft | 410 kts | 210° |
| 2026-05-05 00:28 | 50.75848 | 11.89014 | 33915 ft | 412 kts | 210° |
| 2026-05-05 00:28 | 50.70885 | 11.84603 | 33914 ft | 411 kts | 210° |
| 2026-05-05 00:29 | 50.65874 | 11.80160 | 33916 ft | 412 kts | 210° |
| 2026-05-05 00:29 | 50.60876 | 11.75741 | 33915 ft | 412 kts | 210° |
| 2026-05-05 00:30 | 50.55906 | 11.71356 | 33917 ft | 412 kts | 210° |
| 2026-05-05 00:30 | 50.50900 | 11.66948 | 33922 ft | 413 kts | 210° |
| 2026-05-05 00:31 | 50.45918 | 11.62573 | 33927 ft | 413 kts | 210° |
| 2026-05-05 00:31 | 50.40833 | 11.58120 | 33931 ft | 413 kts | 210° |
| 2026-05-05 00:32 | 50.35835 | 11.53752 | 33932 ft | 413 kts | 210° |
| 2026-05-05 00:32 | 50.30806 | 11.49371 | 33927 ft | 413 kts | 210° |
| 2026-05-05 00:33 | 50.25801 | 11.45019 | 33919 ft | 413 kts | 210° |
| 2026-05-05 00:33 | 50.20796 | 11.40677 | 33913 ft | 413 kts | 209° |
| 2026-05-05 00:34 | 50.15621 | 11.36200 | 33910 ft | 414 kts | 210° |
| 2026-05-05 00:34 | 50.10599 | 11.31865 | 33910 ft | 414 kts | 209° |
| 2026-05-05 00:35 | 50.05487 | 11.27462 | 33909 ft | 414 kts | 209° |
| 2026-05-05 00:35 | 50.00194 | 11.22915 | 33911 ft | 415 kts | 209° |
| 2026-05-05 00:36 | 49.95150 | 11.18591 | 33907 ft | 414 kts | 209° |
| 2026-05-05 00:36 | 49.90082 | 11.14259 | 33905 ft | 414 kts | 209° |
| 2026-05-05 00:37 | 49.84983 | 11.09911 | 33904 ft | 415 kts | 209° |
| 2026-05-05 00:37 | 49.79677 | 11.05400 | 33904 ft | 415 kts | 209° |
| 2026-05-05 00:38 | 49.74459 | 11.00971 | 33905 ft | 415 kts | 209° |
| 2026-05-05 00:38 | 49.69323 | 10.96622 | 33899 ft | 416 kts | 209° |
| 2026-05-05 00:39 | 49.64274 | 10.92355 | 33905 ft | 417 kts | 209° |
| 2026-05-05 00:39 | 49.59183 | 10.88066 | 33916 ft | 417 kts | 209° |
| 2026-05-05 00:40 | 49.54034 | 10.83356 | 33917 ft | 416 kts | 214° |
| 2026-05-05 00:40 | 49.49307 | 10.77937 | 33919 ft | 416 kts | 220° |
| 2026-05-05 00:41 | 49.44630 | 10.71226 | 33924 ft | 416 kts | 226° |
| 2026-05-05 00:41 | 49.40514 | 10.64708 | 33929 ft | 416 kts | 226° |
| 2026-05-05 00:42 | 49.36484 | 10.58179 | 33931 ft | 416 kts | 227° |
| 2026-05-05 00:42 | 49.32465 | 10.51801 | 33933 ft | 416 kts | 225° |
| 2026-05-05 00:43 | 49.28342 | 10.45529 | 33935 ft | 417 kts | 225° |
| 2026-05-05 00:43 | 49.24057 | 10.39005 | 33927 ft | 417 kts | 226° |
| 2026-05-05 00:44 | 49.19981 | 10.32704 | 33925 ft | 418 kts | 226° |
| 2026-05-05 00:44 | 49.15890 | 10.26343 | 33920 ft | 418 kts | 226° |
| 2026-05-05 00:45 | 49.12044 | 10.19609 | 33915 ft | 417 kts | 231° |
| 2026-05-05 00:45 | 49.08176 | 10.12279 | 33913 ft | 416 kts | 231° |
| 2026-05-05 00:46 | 49.04089 | 10.04554 | 33918 ft | 417 kts | 231° |
| 2026-05-05 00:46 | 49.00116 | 9.97060 | 33915 ft | 417 kts | 231° |
| 2026-05-05 00:47 | 48.96161 | 9.89620 | 33907 ft | 417 kts | 231° |
| 2026-05-05 00:47 | 48.92284 | 9.82345 | 33911 ft | 417 kts | 231° |
| 2026-05-05 00:48 | 48.88569 | 9.75398 | 33904 ft | 417 kts | 232° |
| 2026-05-05 00:48 | 48.84875 | 9.68508 | 33906 ft | 416 kts | 231° |
| 2026-05-05 00:49 | 48.81170 | 9.61615 | 33907 ft | 416 kts | 231° |
| 2026-05-05 00:49 | 48.77202 | 9.54252 | 33913 ft | 415 kts | 231° |
| 2026-05-05 00:50 | 48.73254 | 9.46949 | 33917 ft | 414 kts | 231° |
| 2026-05-05 00:50 | 48.69185 | 9.39441 | 33925 ft | 415 kts | 231° |
| 2026-05-05 00:51 | 48.65263 | 9.32261 | 33931 ft | 415 kts | 229° |
| 2026-05-05 00:51 | 48.60915 | 9.25492 | 33935 ft | 415 kts | 223° |
| 2026-05-05 00:52 | 48.55954 | 9.19381 | 33935 ft | 415 kts | 218° |
| 2026-05-05 00:52 | 48.50764 | 9.13569 | 33931 ft | 414 kts | 218° |
| 2026-05-05 00:53 | 48.45563 | 9.07756 | 33929 ft | 413 kts | 218° |
| 2026-05-05 00:53 | 48.40789 | 9.02436 | 33931 ft | 414 kts | 218° |
| 2026-05-05 00:54 | 48.35606 | 8.96678 | 33933 ft | 414 kts | 218° |
| 2026-05-05 00:54 | 48.30432 | 8.90946 | 33935 ft | 415 kts | 218° |
| 2026-05-05 00:55 | 48.25239 | 8.85169 | 33934 ft | 414 kts | 218° |
| 2026-05-05 00:55 | 48.20094 | 8.79451 | 33936 ft | 414 kts | 218° |
| 2026-05-05 00:56 | 48.14875 | 8.73698 | 33928 ft | 414 kts | 217° |
| 2026-05-05 00:56 | 48.09632 | 8.67996 | 33924 ft | 413 kts | 217° |
| 2026-05-05 00:57 | 48.04508 | 8.62433 | 33912 ft | 412 kts | 218° |
| 2026-05-05 00:57 | 48.02132 | 8.59856 | 33513 ft | 413 kts | 217° |
| 2026-05-05 00:57 | 47.99712 | 8.57342 | 32487 ft | 421 kts | 212° |
| 2026-05-05 00:57 | 47.96802 | 8.55691 | 31144 ft | 436 kts | 193° |
| 2026-05-05 00:58 | 47.93623 | 8.55466 | 29989 ft | 445 kts | 176° |
| 2026-05-05 00:58 | 47.90482 | 8.56706 | 28962 ft | 452 kts | 160° |
| 2026-05-05 00:58 | 47.87734 | 8.59261 | 27946 ft | 459 kts | 145° |
| 2026-05-05 00:58 | 47.85195 | 8.62365 | 26918 ft | 461 kts | 144° |
| 2026-05-05 00:59 | 47.82633 | 8.65500 | 25789 ft | 463 kts | 144° |
| 2026-05-05 00:59 | 47.80072 | 8.68623 | 24985 ft | 458 kts | 144° |
| 2026-05-05 00:59 | 47.77535 | 8.71706 | 24361 ft | 450 kts | 144° |
| 2026-05-05 00:59 | 47.74996 | 8.74784 | 23655 ft | 444 kts | 144° |
| 2026-05-05 01:00 | 47.72485 | 8.77818 | 22924 ft | 440 kts | 144° |
| 2026-05-05 01:00 | 47.70009 | 8.80801 | 22187 ft | 435 kts | 144° |
| 2026-05-05 01:00 | 47.67519 | 8.83796 | 21431 ft | 432 kts | 144° |
| 2026-05-05 01:00 | 47.65028 | 8.86795 | 20679 ft | 428 kts | 143° |
| 2026-05-05 01:01 | 47.62779 | 8.90005 | 19866 ft | 431 kts | 134° |
| 2026-05-05 01:01 | 47.60788 | 8.93630 | 18995 ft | 431 kts | 133° |
| 2026-05-05 01:01 | 47.58328 | 8.96772 | 18064 ft | 425 kts | 152° |
| 2026-05-05 01:01 | 47.55250 | 8.98126 | 17457 ft | 411 kts | 177° |
| 2026-05-05 01:02 | 47.52124 | 8.97403 | 16826 ft | 402 kts | 202° |
| 2026-05-05 01:02 | 47.49603 | 8.94788 | 16192 ft | 397 kts | 227° |
| 2026-05-05 01:02 | 47.48191 | 8.91107 | 15558 ft | 397 kts | 251° |
| 2026-05-05 01:02 | 47.47943 | 8.86948 | 14910 ft | 399 kts | 275° |
| 2026-05-05 01:03 | 47.48951 | 8.82588 | 14335 ft | 399 kts | 294° |
| 2026-05-05 01:03 | 47.50409 | 8.78338 | 13668 ft | 396 kts | 295° |
| 2026-05-05 01:03 | 47.51756 | 8.74102 | 12955 ft | 394 kts | 292° |
| 2026-05-05 01:03 | 47.53159 | 8.69920 | 12263 ft | 392 kts | 297° |
| 2026-05-05 01:04 | 47.54825 | 8.65949 | 11656 ft | 386 kts | 304° |
| 2026-05-05 01:04 | 47.58762 | 8.59250 | 10647 ft | 371 kts | 315° |
| 2026-05-05 01:04 | 47.60814 | 8.56429 | 10238 ft | 361 kts | 317° |
| 2026-05-05 01:05 | 47.62898 | 8.53610 | 10057 ft | 345 kts | 317° |
| 2026-05-05 01:05 | 47.64943 | 8.50831 | 9818 ft | 332 kts | 317° |
| 2026-05-05 01:05 | 47.66877 | 8.48187 | 9465 ft | 324 kts | 317° |
| 2026-05-05 01:05 | 47.68800 | 8.45551 | 9044 ft | 319 kts | 317° |
| 2026-05-05 01:06 | 47.70693 | 8.42951 | 8628 ft | 313 kts | 317° |
| 2026-05-05 01:06 | 47.72558 | 8.40384 | 8217 ft | 308 kts | 316° |
| 2026-05-05 01:06 | 47.74009 | 8.37456 | 7736 ft | 301 kts | 289° |
| 2026-05-05 01:06 | 47.74094 | 8.33993 | 7217 ft | 290 kts | 251° |
| 2026-05-05 01:07 | 47.72831 | 8.31194 | 6797 ft | 283 kts | 223° |
| 2026-05-05 01:07 | 47.71257 | 8.28998 | 6253 ft | 285 kts | 220° |
| 2026-05-05 01:07 | 47.69452 | 8.27540 | 5991 ft | 274 kts | 191° |
| 2026-05-05 01:07 | 47.67570 | 8.27554 | 5839 ft | 262 kts | 164° |
| 2026-05-05 01:08 | 47.65958 | 8.28823 | 5342 ft | 263 kts | 137° |
| 2026-05-05 01:08 | 47.64652 | 8.30806 | 4931 ft | 263 kts | 131° |
| 2026-05-05 01:08 | 47.63264 | 8.32994 | 4505 ft | 263 kts | 133° |
| 2026-05-05 01:08 | 47.61844 | 8.35043 | 4280 ft | 255 kts | 135° |
| 2026-05-05 01:09 | 47.60532 | 8.36844 | 4214 ft | 241 kts | 136° |
| 2026-05-05 01:09 | 47.59303 | 8.38506 | 4189 ft | 227 kts | 136° |
| 2026-05-05 01:09 | 47.58120 | 8.40109 | 4005 ft | 220 kts | 136° |
| 2026-05-05 01:09 | 47.56916 | 8.41744 | 3793 ft | 211 kts | 136° |
| 2026-05-05 01:10 | 47.55730 | 8.43358 | 3445 ft | 204 kts | 136° |
| 2026-05-05 01:10 | 47.54626 | 8.44862 | 3120 ft | 189 kts | 136° |
| 2026-05-05 01:10 | 47.53601 | 8.46257 | 2859 ft | 173 kts | 135° |
| 2026-05-05 01:10 | 47.52632 | 8.47577 | 2574 ft | 158 kts | 136° |
| 2026-05-05 01:11 | 47.51738 | 8.48796 | 2340 ft | 150 kts | 136° |
| 2026-05-05 01:11 | 47.50861 | 8.49993 | 2132 ft | 150 kts | 136° |
| 2026-05-05 01:11 | 47.49976 | 8.51193 | 1900 ft | 149 kts | 137° |
| 2026-05-05 01:11 | 47.49125 | 8.52342 | 1672 ft | 148 kts | 135° |
| 2026-05-05 01:12 | 47.48275 | 8.53515 | 1508 ft | 146 kts | 136° |
| 2026-05-05 01:12 | 47.47469 | 8.54597 | 1381 ft | 121 kts | 136° |
| 2026-05-05 01:12 | 47.46917 | 8.55368 | 1383 ft | 67 kts | 137° |
| 2026-05-05 01:12 | 47.46662 | 8.55712 | 1383 ft | 34 kts | 136° |
| 2026-05-05 01:13 | 47.46482 | 8.55901 | 1381 ft | 26 kts | 159° |
| 2026-05-05 01:13 | 47.46321 | 8.55973 | 1380 ft | 15 kts | 169° |
| 2026-05-05 01:13 | 47.46210 | 8.56006 | 1382 ft | 14 kts | 171° |
| 2026-05-05 01:13 | 47.46109 | 8.55991 | 1382 ft | 13 kts | 188° |
| 2026-05-05 01:14 | 47.46008 | 8.55972 | 1382 ft | 14 kts | 187° |
| 2026-05-05 01:14 | 47.45904 | 8.55935 | 1382 ft | 14 kts | 199° |
| 2026-05-05 01:14 | 47.45802 | 8.55882 | 1382 ft | 14 kts | 195° |
| 2026-05-05 01:14 | 47.45693 | 8.55862 | 1382 ft | 14 kts | 184° |
| 2026-05-05 01:15 | 47.45586 | 8.55846 | 1382 ft | 15 kts | 186° |
| 2026-05-05 01:15 | 47.45502 | 8.55769 | 1382 ft | 12 kts | 265° |
| 2026-05-05 01:15 | 47.45514 | 8.55654 | 1382 ft | 10 kts | 272° |
| 2026-05-05 01:15 | 47.45522 | 8.55530 | 1382 ft | 11 kts | 278° |
| 2026-05-05 01:16 | 47.45486 | 8.55441 | 1382 ft | 10 kts | 174° |
| 2026-05-05 01:16 | 47.45403 | 8.55491 | 1382 ft | 11 kts | 155° |
| 2026-05-05 01:16 | 47.45318 | 8.55551 | 1382 ft | 11 kts | 155° |
| 2026-05-05 01:16 | 47.45270 | 8.55654 | 1382 ft | 11 kts | 95° |
| 2026-05-05 01:17 | 47.45263 | 8.55766 | 1382 ft | 8 kts | 95° |
| 2026-05-05 01:17 | 47.45263 | 8.55837 | 1382 ft | 5 kts | 52° |
| 2026-05-05 01:17 | 47.45287 | 8.55849 | 1382 ft | 0 kts | 5° |
| 2026-05-05 01:17 | 47.45293 | 8.55850 | 1382 ft | 0 kts | 5° |
| 2026-05-05 01:18 | 47.45301 | 8.55851 | 1382 ft | 1 kts | 7° |
| 2026-05-05 01:18 | 47.45318 | 8.55855 | 1382 ft | 2 kts | 6° |
| 2026-05-05 01:18 | 47.45332 | 8.55857 | 1382 ft | 0 kts | 6° |
| 2026-05-05 01:18 | 47.45334 | 8.55858 | 1382 ft | 0 kts | 6° |